»·PEaware :: N1399 KYKM-KPDX

N1399 :: KYKM-KPDX

FLIGHT INFORMATION

Flight Status: Arrived
Operator: Privately registered:
United States
More flights under this callsign
Pilot: David C. (16084)
Aircraft: ECLIPSE 500
(EA50)
More flights by this aircraft type
Origin: KYKM Yakima Air Term/Mcallister
United States
Destination: KPDX Portland Intl
United States
More flights between these airports :: More routes between these airports
Route: +NACHES4 LTJ YENTL HHOOD4
File this flight plan on PilotEdge
Remarks:
Altitude:
(Current/Filed)
18,000ft
Speed:
(Current/Filed)
334kts
Departed: 19-Dec-17 11:41 AM
Arrived: 19-Dec-17 12:19 PM
Distance/Time
Traveled:
103nm/0:38
Distance/Time
To Go:
Arrived

Flight Plot

Page will automatically refresh every two minutes.

Flight plan parsing failed; only flown route is shown


Map Options




Map Legend


Flown Route
Filed Route
Departure Airport
Arrival Airport
Navaid (VOR, NDB)
Fix

Horizontal Profiles

Position Reports

Time Latitude Longitude Heading Altitude Ground
Speed
19-Dec-17 11:32 46.570241 -120.536099 270 1102ft 0kts
19-Dec-17 11:33 46.570241 -120.536099 270 1102ft 0kts
19-Dec-17 11:34 46.570241 -120.536099 270 1102ft 0kts
19-Dec-17 11:35 46.570241 -120.536099 270 1102ft 0kts
19-Dec-17 11:36 46.570241 -120.536099 270 1102ft 0kts
19-Dec-17 11:37 46.570241 -120.536099 270 1102ft 0kts
19-Dec-17 11:38 46.570241 -120.536099 270 1102ft 0kts
19-Dec-17 11:39 46.570241 -120.536099 270 1102ft 0kts
19-Dec-17 11:40 46.570241 -120.536099 270 1102ft 0kts
19-Dec-17 11:41 46.570241 -120.536099 270 1102ft 0kts
19-Dec-17 11:42 46.570235 -120.536163 251 1102ft 2kts
19-Dec-17 11:43 46.570145 -120.536219 168 1102ft 0kts
19-Dec-17 11:44 46.569923 -120.535595 56 1102ft 6kts
19-Dec-17 11:45 46.568262 -120.531678 150 1102ft 19kts
19-Dec-17 11:46 46.566453 -120.531505 178 1102ft 0kts
19-Dec-17 11:47 46.566990 -120.537370 289 1102ft 81kts
19-Dec-17 11:48 46.589307 -120.575255 334 2972ft 167kts
19-Dec-17 11:49 46.629598 -120.601697 333 6371ft 162kts
19-Dec-17 11:50 46.651033 -120.641208 254 9312ft 156kts
19-Dec-17 11:51 46.608833 -120.670417 196 10018ft 241kts
19-Dec-17 11:52 46.556212 -120.701866 212 10607ft 185kts
19-Dec-17 11:53 46.506553 -120.729264 208 12663ft 213kts
19-Dec-17 11:54 46.450515 -120.757272 207 15086ft 213kts
19-Dec-17 11:55 46.396991 -120.783084 207 17403ft 207kts
19-Dec-17 11:56 46.346159 -120.807194 208 19667ft 197kts
19-Dec-17 11:57 46.285605 -120.835982 205 19755ft 270kts
19-Dec-17 11:58 46.208538 -120.871890 204 19752ft 311kts
19-Dec-17 11:59 46.126601 -120.909863 204 19757ft 314kts
19-Dec-17 12:00 46.045670 -120.947321 204 19764ft 312kts
19-Dec-17 12:01 45.964378 -120.984868 204 19764ft 309kts
19-Dec-17 12:02 45.884094 -121.021828 204 18856ft 303kts
19-Dec-17 12:03 45.805492 -121.057921 204 17665ft 297kts
19-Dec-17 12:04 45.729076 -121.094319 214 16440ft 282kts
19-Dec-17 12:05 45.690731 -121.184012 242 15194ft 267kts
19-Dec-17 12:06 45.659332 -121.277996 242 13981ft 262kts
19-Dec-17 12:07 45.628617 -121.369892 242 12766ft 257kts
19-Dec-17 12:08 45.600125 -121.461777 245 12014ft 255kts
19-Dec-17 12:09 45.575509 -121.549271 245 12012ft 233kts
19-Dec-17 12:10 45.551781 -121.633527 245 12010ft 232kts
19-Dec-17 12:11 45.543127 -121.723923 264 10940ft 240kts
19-Dec-17 12:12 45.540261 -121.807193 264 8970ft 207kts
19-Dec-17 12:13 45.540518 -121.888961 264 7088ft 211kts
19-Dec-17 12:14 45.543584 -121.973746 264 7005ft 221kts
19-Dec-17 12:15 45.546986 -122.059545 265 7006ft 220kts
19-Dec-17 12:16 45.534366 -122.138807 244 6014ft 186kts
19-Dec-17 12:17 45.517140 -122.208644 243 5457ft 212kts
19-Dec-17 12:18 45.498058 -122.283916 252 4006ft 183kts
19-Dec-17 12:19 45.506999 -122.362403 272 3013ft 199kts
19-Dec-17 12:20 45.528898 -122.427384 293 2275ft 168kts
19-Dec-17 12:21 45.547803 -122.475340 292 1545ft 132kts
19-Dec-17 12:22 45.564564 -122.518161 290 875ft 117kts
19-Dec-17 12:23 45.578855 -122.554799 289 298ft 94kts
19-Dec-17 12:24 45.590647 -122.585284 297 32ft 50kts
19-Dec-17 12:25 45.592068 -122.591155 267 32ft 0kts
19-Dec-17 12:26 45.590927 -122.588855 121 32ft 23kts
19-Dec-17 12:27 45.586720 -122.578234 116 32ft 31kts

Navigation Log

Ident Type
Flight plan parsing failed, navigation log unavailable